createdAt,value
2019-05-19T00:00:34.306Z,47.27
2019-05-19T00:05:37.955Z,46.70
2019-05-19T00:10:42.616Z,47.38
2019-05-19T00:15:46.210Z,47.23
2019-05-19T00:20:49.842Z,47.00
2019-05-19T00:25:53.414Z,47.50
2019-05-19T00:30:57.290Z,46.43
2019-05-19T00:36:00.906Z,46.63
2019-05-19T00:41:04.530Z,45.77
2019-05-19T00:46:08.214Z,47.27
2019-05-19T00:51:12.201Z,47.08
2019-05-19T00:56:16.182Z,46.63
2019-05-19T01:01:19.813Z,47.83
2019-05-19T01:06:23.410Z,48.93
2019-05-19T01:11:27.068Z,48.50
2019-05-19T01:16:30.799Z,51.63
2019-05-19T01:21:34.837Z,50.00
2019-05-19T01:26:38.511Z,46.63
2019-05-19T01:31:42.246Z,46.10
2019-05-19T01:36:45.837Z,47.53
2019-05-19T01:41:49.460Z,47.80
2019-05-19T01:46:53.058Z,47.20
2019-05-19T01:51:56.645Z,47.67
2019-05-19T01:57:00.255Z,49.40
2019-05-19T02:02:04.018Z,48.60
2019-05-19T02:07:07.767Z,48.63
2019-05-19T02:12:11.322Z,50.53
2019-05-19T02:17:14.989Z,51.07
2019-05-19T02:22:18.854Z,50.80
2019-05-19T02:27:22.531Z,51.83
2019-05-19T02:32:26.138Z,49.23
2019-05-19T02:37:29.745Z,48.27
2019-05-19T02:42:35.410Z,50.03
2019-05-19T02:47:42.186Z,49.07
2019-05-19T02:52:48.883Z,50.43
2019-05-19T02:57:54.022Z,49.85
2019-05-19T03:02:57.562Z,50.40
2019-05-19T03:08:01.143Z,49.67
2019-05-19T03:13:04.863Z,48.77
2019-05-19T03:18:08.520Z,48.17
2019-05-19T03:23:12.191Z,48.60
2019-05-19T03:28:15.783Z,48.40
2019-05-19T03:33:21.021Z,47.67
2019-05-19T03:38:24.587Z,49.20
2019-05-19T03:43:28.267Z,48.30
2019-05-19T03:48:31.880Z,49.07
2019-05-19T03:53:35.435Z,49.53
2019-05-19T03:58:39.008Z,50.77
2019-05-19T04:03:42.675Z,49.43
2019-05-19T04:08:46.270Z,49.87
2019-05-19T04:13:49.889Z,51.20
2019-05-19T04:18:53.463Z,51.50
2019-05-19T04:23:57.063Z,50.93
2019-05-19T04:29:00.640Z,50.83
2019-05-19T04:34:04.364Z,51.50
2019-05-19T04:39:08.014Z,51.58
2019-05-19T04:44:11.631Z,51.58
2019-05-19T04:49:15.193Z,51.15
2019-05-19T04:54:19.610Z,52.15
2019-05-19T04:59:23.206Z,51.23
2019-05-19T05:04:29.404Z,52.48
2019-05-19T05:09:32.154Z,53.02
2019-05-19T05:14:35.867Z,52.30
2019-05-19T05:19:39.444Z,52.85
2019-05-19T05:24:43.120Z,52.13
2019-05-19T05:29:46.769Z,53.10
2019-05-19T05:34:50.352Z,53.68
2019-05-19T05:39:53.954Z,53.15
2019-05-19T05:44:57.514Z,54.05
2019-05-19T05:50:01.085Z,56.58
2019-05-19T05:55:05.922Z,55.12
2019-05-19T06:00:10.051Z,54.80
2019-05-19T06:05:14.076Z,55.03
2019-05-19T06:10:18.604Z,54.08
2019-05-19T06:15:22.294Z,52.90
2019-05-19T06:20:25.919Z,54.67
2019-05-19T06:25:29.651Z,58.78
2019-05-19T06:30:33.319Z,55.70
2019-05-19T06:35:36.875Z,53.38
2019-05-19T06:40:40.497Z,54.50
2019-05-19T06:45:44.143Z,54.18
2019-05-19T06:50:47.796Z,54.53
2019-05-19T06:55:51.397Z,53.80
2019-05-19T07:00:58.996Z,52.93
2019-05-19T07:06:01.414Z,51.08
2019-05-19T07:11:05.023Z,50.07
2019-05-19T07:16:08.811Z,51.00
2019-05-19T07:21:12.394Z,51.10
2019-05-19T07:26:15.970Z,51.10
2019-05-19T07:31:19.570Z,50.80
2019-05-19T07:36:23.163Z,51.25
2019-05-19T07:41:26.814Z,50.25
2019-05-19T07:46:30.561Z,50.10
2019-05-19T07:51:34.250Z,50.23
2019-05-19T07:56:37.933Z,50.48
2019-05-19T08:01:41.506Z,50.25
2019-05-19T08:06:45.040Z,51.00
2019-05-19T08:11:48.658Z,50.80
2019-05-19T08:16:52.346Z,50.80
2019-05-19T08:21:56.082Z,50.90
2019-05-19T08:26:59.783Z,51.13
2019-05-19T08:32:03.450Z,50.95
2019-05-19T08:37:07.122Z,50.85
2019-05-19T08:42:10.756Z,51.18
2019-05-19T08:47:14.337Z,51.15
2019-05-19T08:52:17.979Z,51.75
2019-05-19T08:57:21.585Z,51.02
2019-05-19T09:02:25.268Z,51.85
2019-05-19T09:07:28.847Z,51.00
2019-05-19T09:12:32.540Z,51.20
2019-05-19T09:17:36.117Z,51.20
2019-05-19T09:22:39.680Z,51.25
2019-05-19T09:27:43.244Z,51.42
2019-05-19T09:32:46.954Z,51.30
2019-05-19T09:37:50.666Z,51.90
2019-05-19T09:42:54.391Z,51.68
2019-05-19T09:47:58.060Z,51.33
2019-05-19T09:53:01.712Z,51.60
2019-05-19T09:58:05.382Z,51.88
2019-05-19T10:03:08.970Z,51.80
2019-05-19T10:08:12.546Z,51.40
2019-05-19T10:13:16.262Z,51.80
2019-05-19T10:18:19.902Z,51.30
2019-05-19T10:23:23.503Z,52.35
2019-05-19T10:28:27.083Z,51.83
2019-05-19T10:33:30.714Z,50.98
2019-05-19T10:38:34.455Z,51.63
2019-05-19T10:43:38.034Z,51.25
2019-05-19T10:48:41.557Z,52.10
2019-05-19T10:53:45.125Z,51.50
2019-05-19T10:58:48.735Z,51.63
2019-05-19T11:03:52.383Z,52.23
2019-05-19T11:08:55.962Z,51.90
2019-05-19T11:13:59.722Z,52.00
2019-05-19T11:19:03.346Z,51.98
2019-05-19T11:24:07.019Z,51.63
2019-05-19T11:29:10.683Z,52.15
2019-05-19T11:34:14.317Z,51.50
2019-05-19T11:39:17.967Z,52.65
2019-05-19T11:44:21.718Z,52.27
2019-05-19T11:49:25.464Z,52.05
2019-05-19T11:54:29.106Z,51.65
2019-05-19T11:59:32.713Z,52.23
2019-05-19T12:04:36.348Z,52.65
2019-05-19T12:09:40.067Z,51.80
2019-05-19T12:14:43.695Z,52.20
2019-05-19T12:19:47.279Z,52.03
2019-05-19T12:24:50.877Z,52.57
2019-05-19T12:29:54.459Z,51.75
2019-05-19T12:34:58.010Z,53.13
2019-05-19T12:40:01.590Z,51.75
2019-05-19T12:45:10.085Z,52.17
2019-05-19T12:50:14.742Z,52.23
2019-05-19T12:55:18.426Z,52.50
2019-05-19T13:00:23.094Z,51.90
2019-05-19T13:05:26.781Z,52.98
2019-05-19T13:10:30.532Z,52.43
2019-05-19T13:15:34.091Z,51.63
2019-05-19T13:20:38.423Z,51.80
2019-05-19T13:25:43.600Z,51.80
2019-05-19T13:30:47.353Z,50.47
2019-05-19T13:35:50.950Z,50.70
2019-05-19T13:40:54.618Z,50.97
2019-05-19T13:45:58.290Z,49.88
2019-05-19T13:51:02.197Z,50.00
2019-05-19T13:56:05.948Z,50.10
2019-05-19T14:01:09.589Z,51.13
2019-05-19T14:06:13.256Z,50.70
2019-05-19T14:11:16.819Z,51.05
2019-05-19T14:16:20.447Z,51.35
2019-05-19T14:21:24.037Z,51.05
2019-05-19T14:26:27.678Z,51.63
2019-05-19T14:31:31.334Z,51.88
2019-05-19T14:36:35.038Z,51.88
2019-05-19T14:41:40.343Z,52.17
2019-05-19T14:46:43.992Z,52.20
2019-05-19T14:51:47.574Z,52.38
2019-05-19T14:56:51.230Z,52.93
2019-05-19T15:01:54.835Z,52.53
2019-05-19T15:06:58.707Z,52.58
2019-05-19T15:12:02.360Z,52.27
2019-05-19T15:17:06.015Z,52.48
2019-05-19T15:22:09.713Z,52.17
2019-05-19T15:27:13.310Z,52.62
2019-05-19T15:32:16.910Z,52.05
2019-05-19T15:37:20.656Z,51.28
2019-05-19T15:42:24.211Z,51.88
2019-05-19T15:47:27.977Z,51.75
2019-05-19T15:52:31.621Z,51.50
2019-05-19T15:57:35.578Z,51.10
2019-05-19T16:02:39.159Z,51.23
2019-05-19T16:07:42.879Z,51.35
2019-05-19T16:12:46.622Z,51.80
2019-05-19T16:17:50.221Z,52.67
2019-05-19T16:22:53.812Z,51.90
2019-05-19T16:27:57.414Z,52.65
2019-05-19T16:33:00.970Z,53.95
2019-05-19T16:38:04.719Z,53.48
2019-05-19T16:43:09.803Z,54.67
2019-05-19T16:48:13.387Z,52.33
2019-05-19T16:53:17.031Z,54.90
2019-05-19T16:58:21.786Z,55.63
2019-05-19T17:03:25.799Z,55.48
2019-05-19T17:08:29.361Z,51.75
2019-05-19T17:13:32.926Z,52.50
2019-05-19T17:18:36.601Z,52.62
2019-05-19T17:23:40.194Z,52.70
2019-05-19T17:28:43.785Z,52.62
2019-05-19T17:33:47.348Z,52.73
2019-05-19T17:38:50.950Z,52.60
2019-05-19T17:43:54.678Z,53.73
2019-05-19T17:49:00.237Z,53.05
2019-05-19T17:54:06.510Z,55.20
2019-05-19T17:59:16.558Z,52.80
2019-05-19T18:04:15.544Z,51.97
2019-05-19T18:09:19.113Z,52.10
2019-05-19T18:14:22.745Z,53.95
2019-05-19T18:19:26.315Z,54.48
2019-05-19T18:24:29.897Z,56.15
2019-05-19T18:29:33.491Z,53.28
2019-05-19T18:34:37.186Z,52.23
2019-05-19T18:39:40.738Z,51.53
2019-05-19T18:44:44.363Z,51.92
2019-05-19T18:49:47.947Z,52.00
2019-05-19T18:54:51.696Z,52.43
2019-05-19T18:59:55.399Z,52.70
2019-05-19T19:04:59.127Z,53.35
2019-05-19T19:10:02.894Z,51.53
2019-05-19T19:15:07.448Z,49.93
2019-05-19T19:20:11.257Z,49.83
2019-05-19T19:25:15.306Z,49.33
2019-05-19T19:30:19.463Z,49.70
2019-05-19T19:35:23.127Z,50.12
2019-05-19T19:40:31.784Z,50.45
2019-05-19T19:45:35.467Z,50.98
2019-05-19T19:50:39.194Z,49.58
2019-05-19T19:55:42.816Z,50.12
2019-05-19T20:00:47.500Z,50.90
2019-05-19T20:05:51.143Z,50.73
2019-05-19T20:10:54.746Z,49.80
2019-05-19T20:15:58.328Z,51.20
2019-05-19T20:21:02.443Z,51.20
2019-05-19T20:26:06.040Z,51.02
2019-05-19T20:31:09.696Z,50.67
2019-05-19T20:36:13.266Z,50.85
2019-05-19T20:41:16.943Z,51.10
2019-05-19T20:46:20.671Z,51.08
2019-05-19T20:51:24.285Z,50.58
2019-05-19T20:56:27.934Z,51.83
2019-05-19T21:01:31.505Z,50.60
2019-05-19T21:06:35.078Z,50.33
2019-05-19T21:11:38.679Z,55.38
2019-05-19T21:16:42.271Z,52.88
2019-05-19T21:21:45.837Z,52.65
2019-05-19T21:26:49.427Z,51.18
2019-05-19T21:31:52.988Z,51.35
2019-05-19T21:36:56.790Z,51.00
2019-05-19T21:42:00.624Z,52.20
2019-05-19T21:47:04.363Z,50.58
2019-05-19T21:52:08.034Z,51.40
2019-05-19T21:57:11.614Z,49.88
2019-05-19T22:02:15.778Z,51.55
2019-05-19T22:07:20.898Z,51.00
2019-05-19T22:12:24.588Z,50.60
2019-05-19T22:17:28.244Z,50.73
2019-05-19T22:22:31.857Z,51.25
2019-05-19T22:27:35.464Z,51.20
2019-05-19T22:32:39.104Z,51.83
2019-05-19T22:37:42.750Z,50.52
2019-05-19T22:42:46.430Z,50.03
2019-05-19T22:47:50.017Z,49.63
2019-05-19T22:52:53.670Z,49.53
2019-05-19T22:57:57.431Z,49.83
2019-05-19T23:03:01.083Z,50.12
2019-05-19T23:08:04.677Z,49.40
2019-05-19T23:13:08.474Z,48.85
2019-05-19T23:18:12.176Z,48.52
2019-05-19T23:23:15.770Z,48.87
2019-05-19T23:28:19.434Z,48.95
2019-05-19T23:33:23.055Z,48.55
2019-05-19T23:38:26.718Z,49.50
2019-05-19T23:43:30.311Z,48.58
2019-05-19T23:48:33.953Z,48.63
2019-05-19T23:53:37.574Z,51.40
2019-05-19T23:58:41.307Z,49.27
